Time;durP1;ratioP1;P1;durP2;ratioP2;P2;SDS_P1;SDS_P2;PMS_P1;PMS_P2;Temp;Humidity;BMP_temperature;BMP_pressure;BME280_temperature;BME280_humidity;BME280_pressure;Samples;Min_cycle;Max_cycle;Signal;HPM_P1;HPM_P2
2022/12/03 00:02:05;;;;;;;8.83;4.35;;;;;;;10.82;34.82;101477.59;1770771;80;21215;-77
2022/12/03 00:05:12;;;;;;;20.55;9.98;;;;;;;10.95;34.64;101480.34;1771052;81;21185;-77
2022/12/03 00:08:18;;;;;;;14.18;5.92;;;;;;;10.99;34.23;101487.77;1770963;81;21172;-77
2022/12/03 00:11:24;;;;;;;16.70;6.47;;;;;;;10.69;34.49;101489.75;1770521;81;21252;-77
2022/12/03 00:14:23;;;;;;;23.20;8.15;;;;;;;9.89;35.71;101495.06;1771185;81;21157;-77
2022/12/03 00:17:30;;;;;;;28.80;9.58;;;;;;;9.59;35.96;101492.42;1770052;81;21893;-76
2022/12/03 00:20:36;;;;;;;11.28;7.40;;;;;;;8.82;37.50;101492.55;1769611;81;21179;-76
2022/12/03 00:23:42;;;;;;;16.02;7.78;;;;;;;8.96;37.54;101494.05;1770842;81;21232;-76
2022/12/03 00:26:47;;;;;;;14.47;5.87;;;;;;;9.30;37.28;101508.25;1770848;81;21220;-76
2022/12/03 00:29:53;;;;;;;19.30;6.22;;;;;;;9.36;37.00;101495.42;1769632;81;21228;-76
2022/12/03 00:32:58;;;;;;;13.43;5.62;;;;;;;9.31;36.94;101493.58;1769347;81;21267;-77
2022/12/03 00:36:04;;;;;;;14.00;8.85;;;;;;;9.37;36.52;101512.16;1770975;81;21187;-77
2022/12/03 00:39:09;;;;;;;13.83;6.55;;;;;;;9.86;36.28;101514.47;1769447;81;21180;-76
2022/12/03 00:42:15;;;;;;;15.35;6.85;;;;;;;9.63;36.80;101525.30;1769506;81;21180;-77
2022/12/03 00:45:15;;;;;;;21.23;11.63;;;;;;;9.79;36.28;101530.23;1769988;81;21240;-76
2022/12/03 00:48:20;;;;;;;18.85;8.20;;;;;;;9.66;36.33;101525.02;1770625;81;21208;-77
2022/12/03 00:51:27;;;;;;;13.58;7.72;;;;;;;9.76;36.25;101526.41;1769629;81;21224;-77
2022/12/03 00:54:32;;;;;;;15.10;7.65;;;;;;;10.26;35.31;101538.13;1769573;81;21164;-77
2022/12/03 00:57:38;;;;;;;24.00;10.13;;;;;;;9.95;35.49;101520.95;1770815;81;21743;-77
2022/12/03 01:00:44;;;;;;;18.60;9.85;;;;;;;9.53;36.02;101533.97;1771027;81;21177;-77
2022/12/03 01:03:49;;;;;;;18.98;13.40;;;;;;;10.10;35.54;101545.48;1770492;79;22271;-77
2022/12/03 01:06:54;;;;;;;21.70;8.43;;;;;;;9.94;35.70;101541.96;1770976;81;21739;-77
2022/12/03 01:10:00;;;;;;;18.20;9.23;;;;;;;9.70;35.84;101544.23;1770888;81;21181;-76
2022/12/03 01:13:06;;;;;;;18.17;11.00;;;;;;;9.85;35.81;101545.55;1769962;81;21216;-76
2022/12/03 01:16:12;;;;;;;24.47;13.10;;;;;;;9.67;35.94;101548.09;1769629;81;21182;-78
2022/12/03 01:19:18;;;;;;;16.37;10.90;;;;;;;10.24;34.89;101536.02;1769585;81;21758;-77
2022/12/03 01:22:24;;;;;;;21.65;11.65;;;;;;;9.99;34.86;101553.33;1770739;81;21223;-76
2022/12/03 01:25:29;;;;;;;24.32;10.85;;;;;;;9.68;35.37;101551.69;1770849;81;21176;-76
2022/12/03 01:28:35;;;;;;;18.27;8.93;;;;;;;9.83;35.47;101547.53;1770888;81;21173;-77
2022/12/03 01:35:05;;;;;;;24.57;14.35;;;;;;;9.72;35.42;101572.27;1770979;81;21216;-77
2022/12/03 01:38:10;;;;;;;19.62;10.13;;;;;;;9.71;35.49;101565.08;1770971;81;21185;-76
2022/12/03 01:41:17;;;;;;;16.75;7.45;;;;;;;10.04;35.30;101565.70;1771100;81;21216;-77
2022/12/03 01:44:27;;;;;;;17.95;8.28;;;;;;;9.56;36.01;101576.91;1770957;81;21176;-77
2022/12/03 01:47:27;;;;;;;26.75;7.75;;;;;;;9.77;35.69;101572.70;1771131;81;21172;-77
2022/12/03 01:50:39;;;;;;;19.30;11.15;;;;;;;9.76;35.91;101565.52;1771559;81;21173;-76
2022/12/03 01:53:46;;;;;;;20.10;10.95;;;;;;;9.72;35.72;101579.95;1770023;81;21251;-76
2022/12/03 01:56:44;;;;;;;17.55;8.63;;;;;;;9.89;35.53;101577.05;1770868;81;21168;-76
2022/12/03 01:59:46;;;;;;;17.40;8.63;;;;;;;9.72;35.34;101569.02;1771136;81;21283;-77
2022/12/03 02:02:52;;;;;;;17.32;8.85;;;;;;;9.93;35.33;101575.77;1770674;81;21774;-78
2022/12/03 02:05:58;;;;;;;21.02;9.40;;;;;;;9.67;35.47;101573.19;1779076;79;21314;-78
2022/12/03 02:09:07;;;;;;;20.27;8.23;;;;;;;9.58;35.63;101576.75;1777101;80;21157;-78
2022/12/03 02:12:04;;;;;;;20.85;6.20;;;;;;;9.58;35.58;101569.42;1778329;80;21734;-78
2022/12/03 02:15:09;;;;;;;24.60;10.45;;;;;;;9.06;36.04;101578.70;1780520;80;21224;-78
2022/12/03 02:18:16;;;;;;;21.77;8.20;;;;;;;9.68;35.65;101588.56;1780595;80;21176;-78
2022/12/03 02:21:39;;;;;;;25.32;10.23;;;;;;;9.45;35.71;101581.95;1780708;80;21177;-78
2022/12/03 02:25:08;;;;;;;17.60;9.50;;;;;;;9.22;35.98;101596.79;1779067;80;21193;-76
2022/12/03 02:28:15;;;;;;;25.50;10.35;;;;;;;8.94;36.22;101599.76;1780614;80;21223;-76
2022/12/03 02:31:22;;;;;;;24.92;10.43;;;;;;;8.77;36.75;101602.58;1764072;80;21731;-76
2022/12/03 02:34:50;;;;;;;39.88;9.45;;;;;;;8.65;36.98;101618.12;1789952;79;21200;-76
2022/12/03 02:37:59;;;;;;;24.52;11.45;;;;;;;8.19;37.34;101622.04;1767548;80;21324;-77
2022/12/03 02:41:08;;;;;;;17.73;8.93;;;;;;;8.26;37.30;101636.00;1760142;80;21182;-77
2022/12/03 02:44:14;;;;;;;29.32;11.85;;;;;;;8.06;37.39;101632.23;1783442;79;21152;-77
2022/12/03 02:47:18;;;;;;;23.98;11.33;;;;;;;8.20;37.18;101635.17;1761263;80;21209;-77
2022/12/03 02:50:28;;;;;;;27.67;11.63;;;;;;;8.65;36.55;101640.45;1771980;79;22416;-77
2022/12/03 02:53:43;;;;;;;24.82;10.55;;;;;;;8.23;36.77;101651.24;1778499;80;21224;-76
2022/12/03 02:56:48;;;;;;;24.35;10.43;;;;;;;8.39;36.46;101636.73;1798924;79;21184;-76
2022/12/03 02:59:54;;;;;;;25.97;13.08;;;;;;;8.37;36.38;101641.44;1786129;79;21227;-76
2022/12/03 03:03:00;;;;;;;25.35;11.53;;;;;;;8.58;36.18;101645.58;1779045;80;21716;-76
2022/12/03 03:06:05;;;;;;;24.67;12.20;;;;;;;8.45;36.06;101640.30;1761352;80;21204;-77
2022/12/03 03:09:10;;;;;;;22.95;9.53;;;;;;;8.28;36.03;101665.38;1780404;80;21287;-76
2022/12/03 03:12:15;;;;;;;24.10;10.75;;;;;;;8.14;36.09;101652.91;1748642;79;21278;-80
2022/12/03 03:15:20;;;;;;;29.37;12.68;;;;;;;7.96;36.45;101638.08;1737050;82;21266;-77
2022/12/03 03:18:18;;;;;;;25.90;11.57;;;;;;;7.89;36.50;101639.56;1738769;82;21191;-77
2022/12/03 03:21:10;;;;;;;28.20;11.53;;;;;;;7.92;36.42;101659.26;1737632;82;21262;-78
2022/12/03 03:24:16;;;;;;;19.42;11.35;;;;;;;7.64;36.76;101635.27;1738642;82;21187;-78
2022/12/03 03:27:22;;;;;;;30.23;13.13;;;;;;;7.73;36.54;101645.92;1738919;82;21167;-78
2022/12/03 03:30:27;;;;;;;21.87;10.78;;;;;;;7.59;36.71;101645.68;1739153;82;21163;-78
2022/12/03 03:33:33;;;;;;;24.47;11.83;;;;;;;7.36;37.06;101638.87;1738879;82;21171;-78
2022/12/03 03:36:38;;;;;;;26.45;12.75;;;;;;;7.24;37.23;101657.53;1737417;82;21214;-78
2022/12/03 03:39:45;;;;;;;29.15;12.88;;;;;;;7.42;36.95;101663.36;1738506;82;21223;-77
2022/12/03 03:42:51;;;;;;;24.35;11.93;;;;;;;7.27;37.04;101665.95;1738814;82;21171;-77
2022/12/03 03:45:57;;;;;;;25.17;9.78;;;;;;;6.84;37.57;101677.00;1737257;82;21175;-76
2022/12/03 03:49:02;;;;;;;24.47;10.18;;;;;;;6.61;37.90;101662.95;1738707;82;21238;-77
2022/12/03 03:52:10;;;;;;;29.37;12.82;;;;;;;6.79;37.65;101660.17;1738168;82;21242;-78
2022/12/03 03:55:17;;;;;;;30.57;13.75;;;;;;;6.73;37.77;101666.09;1738069;82;21231;-77
2022/12/03 03:58:23;;;;;;;24.80;12.37;;;;;;;6.80;37.67;101665.98;1738590;82;21199;-78
2022/12/03 04:01:29;;;;;;;22.35;9.48;;;;;;;6.26;38.46;101675.16;1738847;82;21246;-77
2022/12/03 04:04:34;;;;;;;23.67;11.35;;;;;;;6.14;38.45;101676.93;1737410;82;21226;-78
2022/12/03 04:07:40;;;;;;;27.65;11.43;;;;;;;5.74;39.41;101685.28;1751595;81;21214;-78
2022/12/03 04:14:09;;;;;;;29.23;12.07;;;;;;;5.58;39.39;101695.50;1757231;81;21278;-76
2022/12/03 04:17:14;;;;;;;27.65;12.60;;;;;;;5.53;39.62;101689.53;1757460;81;21202;-77
2022/12/03 04:20:20;;;;;;;24.55;10.60;;;;;;;5.85;39.26;101692.14;1757237;81;21207;-76
2022/12/03 04:23:26;;;;;;;24.70;12.80;;;;;;;5.87;38.95;101709.67;1757321;81;21788;-77
2022/12/03 04:29:54;;;;;;;23.07;11.18;;;;;;;5.83;38.90;101695.47;1757396;81;21222;-77
2022/12/03 04:36:16;;;;;;;23.45;10.28;;;;;;;5.92;38.86;101700.73;1776273;79;21228;-77
2022/12/03 04:39:24;;;;;;;23.67;10.55;;;;;;;5.90;38.82;101716.25;1781393;80;21328;-77
2022/12/03 04:42:29;;;;;;;27.13;12.23;;;;;;;5.68;39.15;101707.42;1778879;78;21180;-77
2022/12/03 04:45:28;;;;;;;31.00;13.72;;;;;;;5.98;38.94;101722.52;1742958;80;21220;-77
2022/12/03 04:48:32;;;;;;;27.35;12.30;;;;;;;6.09;38.63;101723.45;1693556;84;21195;-77
2022/12/03 04:51:39;;;;;;;25.30;12.50;;;;;;;5.73;39.16;101717.45;1705495;84;21541;-77
2022/12/03 04:54:45;;;;;;;29.85;13.08;;;;;;;5.77;39.18;101750.20;1763787;81;21223;-77
2022/12/03 04:57:51;;;;;;;22.93;11.80;;;;;;;5.48;39.59;101721.56;1771044;81;21758;-77
2022/12/03 05:00:56;;;;;;;26.25;12.63;;;;;;;5.17;40.17;101731.85;1768155;80;21180;-76
2022/12/03 05:04:03;;;;;;;29.48;13.43;;;;;;;5.07;39.99;101737.54;1723992;83;21191;-77
2022/12/03 05:07:07;;;;;;;24.40;12.25;;;;;;;5.26;40.01;101723.56;1722173;82;21211;-77
2022/12/03 05:10:14;;;;;;;27.50;12.60;;;;;;;5.28;39.86;101725.70;1712539;83;21264;-77
2022/12/03 05:13:20;;;;;;;27.70;12.63;;;;;;;5.51;39.60;101745.78;1743479;82;21193;-77
2022/12/03 05:16:26;;;;;;;23.05;11.68;;;;;;;5.34;39.72;101755.10;1699417;84;21228;-77
2022/12/03 05:22:57;;;;;;;29.30;13.05;;;;;;;5.55;39.64;101755.42;1671507;86;21240;-77
2022/12/03 05:26:02;;;;;;;34.50;10.80;;;;;;;5.72;39.18;101759.66;1700020;84;21192;-77
2022/12/03 05:29:08;;;;;;;26.12;11.95;;;;;;;5.02;39.88;101765.47;1672460;86;21216;-76
2022/12/03 05:32:14;;;;;;;26.48;12.78;;;;;;;5.61;39.65;101762.66;1701461;83;21504;-76
2022/12/03 05:35:20;;;;;;;24.35;10.98;;;;;;;5.53;39.25;101765.04;1687305;84;21850;-76
2022/12/03 05:38:26;;;;;;;20.77;10.13;;;;;;;5.66;39.17;101775.91;1687346;83;21231;-77
2022/12/03 05:44:55;;;;;;;22.50;11.63;;;;;;;5.87;38.63;101765.34;1696384;84;21204;-77
2022/12/03 05:48:01;;;;;;;22.30;11.25;;;;;;;6.02;38.69;101775.61;1695418;84;21727;-77
2022/12/03 05:51:08;;;;;;;27.62;10.88;;;;;;;5.63;39.11;101781.55;1695839;84;21271;-77
2022/12/03 05:54:13;;;;;;;22.35;11.15;;;;;;;5.63;39.20;101791.91;1695172;84;21212;-77
2022/12/03 05:57:19;;;;;;;21.57;10.25;;;;;;;5.65;39.25;101802.68;1695030;84;21358;-77
2022/12/03 06:00:36;;;;;;;23.40;10.75;;;;;;;5.67;39.37;101792.56;1695437;84;21231;-78
2022/12/03 06:03:40;;;;;;;18.30;9.23;;;;;;;6.33;38.33;101791.42;1695897;84;21333;-77
2022/12/03 06:06:47;;;;;;;20.90;9.23;;;;;;;6.56;37.87;101783.42;1695163;84;21212;-77
2022/12/03 06:09:52;;;;;;;18.45;10.53;;;;;;;6.18;38.13;101806.63;1724337;80;21802;-77
2022/12/03 06:12:59;;;;;;;22.62;9.73;;;;;;;6.46;37.81;101802.76;1737089;82;21243;-77
2022/12/03 06:15:58;;;;;;;20.25;10.00;;;;;;;6.12;38.34;101799.80;1737021;82;21184;-76
2022/12/03 06:19:04;;;;;;;23.00;10.95;;;;;;;6.14;38.26;101798.69;1737061;82;21236;-77
2022/12/03 06:22:10;;;;;;;23.83;11.03;;;;;;;6.34;38.36;101809.45;1736964;82;21889;-76
2022/12/03 06:25:16;;;;;;;18.32;8.25;;;;;;;5.86;38.83;101800.27;1736981;82;21224;-76
2022/12/03 06:28:21;;;;;;;21.73;10.53;;;;;;;5.75;39.15;101813.27;1737035;82;21180;-78
2022/12/03 06:31:27;;;;;;;20.88;10.38;;;;;;;6.18;38.74;101807.98;1735766;82;21750;-78
2022/12/03 06:34:32;;;;;;;16.77;8.95;;;;;;;5.80;38.95;101815.16;1735665;82;21189;-78
2022/12/03 06:37:38;;;;;;;18.00;10.28;;;;;;;5.77;39.12;101807.72;1736297;82;21220;-78
2022/12/03 06:40:44;;;;;;;22.15;10.53;;;;;;;6.15;38.94;101822.66;1737146;82;21188;-78
2022/12/03 06:43:50;;;;;;;18.35;9.28;;;;;;;6.03;39.00;101814.05;1737060;82;21232;-78
2022/12/03 06:46:55;;;;;;;18.50;8.63;;;;;;;6.15;38.96;101828.08;1736954;82;21203;-77
2022/12/03 06:50:01;;;;;;;21.33;8.28;;;;;;;5.74;39.38;101818.32;1737375;82;21918;-78
2022/12/03 06:53:06;;;;;;;18.60;9.20;;;;;;;6.06;39.04;101828.75;1735839;82;21208;-78
2022/12/03 06:56:11;;;;;;;15.23;8.85;;;;;;;6.22;38.77;101816.30;1735830;82;21790;-78
2022/12/03 06:59:18;;;;;;;20.43;8.93;;;;;;;5.93;39.10;101818.38;1736881;82;21826;-78
2022/12/03 07:02:24;;;;;;;18.07;7.47;;;;;;;5.82;39.15;101824.05;1736763;82;21180;-78
2022/12/03 07:05:29;;;;;;;14.75;8.38;;;;;;;6.14;39.00;101820.92;1736506;82;21232;-78
2022/12/03 07:08:36;;;;;;;12.30;6.22;;;;;;;6.27;38.67;101821.77;1735178;82;21228;-77
2022/12/03 07:11:41;;;;;;;17.62;9.23;;;;;;;6.40;38.45;101839.42;1735858;80;21263;-76
2022/12/03 07:14:47;;;;;;;19.27;7.78;;;;;;;6.55;38.02;101830.63;1736677;82;21240;-77
2022/12/03 07:17:54;;;;;;;20.17;8.13;;;;;;;6.51;37.98;101839.98;1736154;82;21204;-77
2022/12/03 07:21:00;;;;;;;13.35;7.55;;;;;;;6.66;37.78;101822.53;1736945;82;21192;-77
2022/12/03 07:24:05;;;;;;;12.60;6.95;;;;;;;6.45;37.89;101839.95;1736699;82;21825;-77
2022/12/03 07:27:04;;;;;;;17.75;7.70;;;;;;;6.72;37.32;101827.50;1735565;82;21173;-78
2022/12/03 07:29:58;;;;;;;15.13;7.67;;;;;;;6.71;37.44;101852.09;1737133;82;21184;-77
2022/12/03 07:33:05;;;;;;;17.67;8.65;;;;;;;6.98;37.14;101849.17;1737353;82;21187;-77
2022/12/03 07:36:17;;;;;;;11.40;5.90;;;;;;;6.62;37.44;101832.75;1737070;82;21765;-77
2022/12/03 07:39:22;;;;;;;13.72;7.85;;;;;;;6.44;37.52;101832.75;1736835;82;21258;-77
2022/12/03 07:42:28;;;;;;;13.35;6.45;;;;;;;6.60;37.50;101837.45;1737265;82;21196;-79
2022/12/03 07:45:34;;;;;;;14.63;6.87;;;;;;;6.66;37.37;101843.78;1736703;82;21319;-79
2022/12/03 07:48:39;;;;;;;13.38;7.00;;;;;;;6.78;37.22;101842.02;1735630;82;21249;-78
2022/12/03 07:51:52;;;;;;;19.70;6.97;;;;;;;6.55;37.54;101842.86;1735918;82;21232;-79
2022/12/03 07:54:53;;;;;;;12.70;7.05;;;;;;;6.70;37.41;101843.56;1736305;82;22526;-79
2022/12/03 07:57:58;;;;;;;10.63;5.83;;;;;;;7.00;37.04;101860.30;1735578;82;21216;-76
2022/12/03 08:01:04;;;;;;;14.73;6.12;;;;;;;7.17;36.59;101841.34;1735647;82;21342;-77
2022/12/03 08:04:11;;;;;;;9.45;5.55;;;;;;;6.96;36.60;101859.28;1736979;82;21185;-77
2022/12/03 08:07:17;;;;;;;15.98;5.80;;;;;;;6.90;36.71;101835.64;1736729;82;21196;-77
2022/12/03 08:10:23;;;;;;;10.05;6.15;;;;;;;7.05;36.70;101844.98;1735683;82;21228;-76
2022/12/03 08:13:30;;;;;;;13.25;6.97;;;;;;;7.68;35.28;101851.92;1736349;82;21675;-76
2022/12/03 08:16:36;;;;;;;8.98;5.83;;;;;;;7.68;35.26;101836.94;1736862;82;21161;-76
2022/12/03 08:19:43;;;;;;;13.75;6.75;;;;;;;7.96;34.86;101844.30;1735585;82;21240;-76
2022/12/03 08:22:50;;;;;;;10.20;5.65;;;;;;;7.91;35.16;101846.02;1737187;82;21780;-77
2022/12/03 08:26:00;;;;;;;11.20;5.95;;;;;;;8.19;34.43;101835.14;1736004;82;21271;-76
2022/12/03 08:29:04;;;;;;;8.78;4.22;;;;;;;8.10;34.53;101827.70;1736332;82;21730;-76
2022/12/03 08:32:12;;;;;;;10.05;4.47;;;;;;;8.42;33.85;101830.55;1737020;82;21188;-76
2022/12/03 08:35:32;;;;;;;12.70;3.70;;;;;;;8.71;33.31;101829.54;1737026;82;21766;-76
2022/12/03 08:38:43;;;;;;;10.53;3.85;;;;;;;8.51;33.53;101829.80;1736680;82;21283;-77
2022/12/03 08:45:39;;;;;;;14.50;5.67;;;;;;;9.24;32.82;101824.15;1736959;82;21176;-76
2022/12/03 08:49:04;;;;;;;9.03;5.15;;;;;;;9.34;32.79;101845.57;1736301;82;21239;-76
2022/12/03 08:52:20;;;;;;;18.25;5.92;;;;;;;8.58;33.60;101859.69;1736217;82;21263;-77
2022/12/03 08:55:41;;;;;;;9.30;5.10;;;;;;;9.05;32.87;101818.52;1736801;82;21813;-77
2022/12/03 09:02:41;;;;;;;;;;;;;;;9.22;32.90;101824.76;1731975;82;21220;-76
2022/12/03 09:05:48;;;;;;;6.37;3.30;;;;;;;10.10;32.00;101829.81;1737336;82;20273;-77
2022/12/03 09:08:54;;;;;;;6.42;3.67;;;;;;;10.35;31.71;101824.91;1735551;82;21243;-77
2022/12/03 09:12:02;;;;;;;9.98;3.92;;;;;;;10.55;30.94;101833.58;1736459;80;21216;-77
2022/12/03 09:15:07;;;;;;;7.22;4.67;;;;;;;8.86;33.06;101814.61;1736964;82;21235;-78
2022/12/03 09:18:16;;;;;;;9.65;5.20;;;;;;;7.60;35.01;101828.49;1736956;82;21169;-77
2022/12/03 09:21:23;;;;;;;8.00;4.35;;;;;;;7.88;35.16;101802.16;1737065;82;21188;-77
2022/12/03 09:24:30;;;;;;;7.45;3.52;;;;;;;8.01;34.88;101803.92;1737011;82;21220;-77
2022/12/03 09:27:35;;;;;;;16.60;4.80;;;;;;;7.65;35.59;101843.98;1735469;82;21762;-77
2022/12/03 09:30:41;;;;;;;11.95;4.05;;;;;;;7.64;35.71;101812.29;1735608;82;21775;-77
2022/12/03 09:33:47;;;;;;;8.80;3.65;;;;;;;7.57;35.87;101833.67;1736957;82;21288;-76
2022/12/03 09:36:53;;;;;;;12.13;4.45;;;;;;;7.61;35.85;101816.61;1737094;82;21184;-76
2022/12/03 09:39:57;;;;;;;13.75;4.80;;;;;;;8.17;35.03;101835.75;1736243;82;21808;-77
2022/12/03 09:43:03;;;;;;;7.22;3.80;;;;;;;8.30;34.76;101816.05;1737052;82;21196;-78
2022/12/03 09:46:08;;;;;;;12.40;4.87;;;;;;;8.17;34.82;101813.94;1737087;82;21331;-78
2022/12/03 09:49:14;;;;;;;9.90;5.12;;;;;;;8.18;35.28;101817.03;1736884;82;21235;-78
2022/12/03 09:52:25;;;;;;;13.93;4.60;;;;;;;8.68;34.58;101814.28;1716141;82;21334;-78
2022/12/03 09:55:32;;;;;;;11.40;4.20;;;;;;;9.11;34.32;101818.00;1718710;82;21177;-78
2022/12/03 09:58:38;;;;;;;6.17;4.22;;;;;;;9.82;33.14;101808.16;1737337;82;21220;-79
2022/12/03 10:01:43;;;;;;;8.13;4.00;;;;;;;10.41;32.11;101817.55;1737014;82;21177;-78
2022/12/03 10:04:50;;;;;;;7.08;4.12;;;;;;;10.34;32.27;101817.72;1737086;82;21740;-76
2022/12/03 10:07:57;;;;;;;9.03;4.70;;;;;;;9.94;32.42;101807.59;1737013;82;21196;-76
2022/12/03 10:11:03;;;;;;;10.28;5.58;;;;;;;10.34;31.85;101816.35;1735846;82;21248;-77
2022/12/03 10:14:08;;;;;;;7.80;3.98;;;;;;;10.42;31.76;101826.97;1736099;80;21290;-77
2022/12/03 10:17:14;;;;;;;9.20;4.35;;;;;;;10.61;31.55;101810.25;1736904;82;21193;-76
2022/12/03 10:20:22;;;;;;;5.78;3.50;;;;;;;10.54;31.45;101811.33;1736391;82;21220;-76
2022/12/03 10:23:32;;;;;;;9.95;4.17;;;;;;;10.20;31.79;101813.45;1737189;82;21819;-77
2022/12/03 10:26:48;;;;;;;8.80;3.98;;;;;;;9.68;32.72;101804.41;1736922;82;21220;-77
2022/12/03 10:30:27;;;;;;;16.42;4.15;;;;;;;10.08;31.87;101809.10;1736836;82;21240;-78
2022/12/03 10:33:36;;;;;;;;;;;;;;;10.20;31.64;101806.62;1739708;82;21197;-78
2022/12/03 10:36:41;;;;;;;8.30;3.45;;;;;;;10.10;31.78;101808.45;1736863;82;20228;-77
2022/12/03 10:40:08;;;;;;;6.55;3.37;;;;;;;10.36;31.40;101821.20;1736866;82;21224;-76
2022/12/03 10:43:32;;;;;;;6.80;3.10;;;;;;;10.42;31.32;101811.92;1736023;82;21359;-77
2022/12/03 10:46:38;;;;;;;7.25;3.17;;;;;;;10.72;30.75;101799.17;1736943;82;21165;-77
2022/12/03 10:49:44;;;;;;;8.78;3.33;;;;;;;11.06;30.80;101802.41;1736929;82;21197;-77
2022/12/03 10:52:49;;;;;;;9.80;3.83;;;;;;;11.05;30.25;101799.80;1737359;82;21205;-77
2022/12/03 10:55:58;;;;;;;6.97;3.40;;;;;;;11.33;30.27;101792.08;1736515;82;21758;-78
2022/12/03 10:59:04;;;;;;;11.65;3.47;;;;;;;11.24;30.40;101790.21;1736996;82;21213;-78
2022/12/03 11:02:11;;;;;;;10.38;3.58;;;;;;;11.16;30.31;101795.56;1737052;82;21164;-77
2022/12/03 11:05:25;;;;;;;8.50;3.08;;;;;;;11.05;30.04;101806.64;1716663;82;21287;-77
2022/12/03 11:08:33;;;;;;;6.37;4.08;;;;;;;11.08;29.97;101789.94;1737071;82;22578;-77
2022/12/03 11:11:45;;;;;;;5.55;3.72;;;;;;;11.22;30.12;101786.77;1736309;82;21188;-77
2022/12/03 11:15:09;;;;;;;5.50;2.72;;;;;;;10.94;30.39;101793.45;1736949;80;21224;-77
2022/12/03 11:18:14;;;;;;;10.75;3.55;;;;;;;10.43;30.88;101832.80;1735797;82;21212;-77
2022/12/03 11:21:39;;;;;;;6.85;3.98;;;;;;;10.83;30.56;101781.28;1736431;82;21284;-76
2022/12/03 11:25:37;;;;;;;6.25;3.47;;;;;;;10.98;30.23;101797.64;1737311;82;21204;-76
2022/12/03 11:28:43;;;;;;;8.30;3.50;;;;;;;11.05;30.34;101808.01;1736327;82;21275;-76
2022/12/03 11:31:53;;;;;;;7.65;3.25;;;;;;;11.42;29.55;101795.83;1736006;82;21236;-77
2022/12/03 11:34:59;;;;;;;8.25;3.58;;;;;;;11.25;29.75;101787.86;1737018;82;21295;-76
2022/12/03 11:38:08;;;;;;;9.53;3.67;;;;;;;11.15;29.94;101792.44;1735617;82;21251;-78
2022/12/03 11:41:41;;;;;;;7.90;3.58;;;;;;;11.38;29.68;101794.38;1718735;83;21337;-77
2022/12/03 11:44:46;;;;;;;13.68;3.72;;;;;;;11.30;29.42;101807.97;1718983;83;21357;-76
2022/12/03 11:48:22;;;;;;;5.72;3.10;;;;;;;10.93;29.68;101801.31;1684699;85;21234;-76
2022/12/03 11:51:30;;;;;;;6.37;3.52;;;;;;;10.48;29.99;101815.97;1735870;82;21219;-76
2022/12/03 11:54:57;;;;;;;7.72;3.35;;;;;;;10.15;30.61;101788.39;1735204;82;21220;-77
2022/12/03 11:58:33;;;;;;;12.55;4.15;;;;;;;10.29;30.53;101814.03;1736841;82;21228;-76
2022/12/03 12:01:44;;;;;;;5.72;3.52;;;;;;;10.60;30.37;101802.55;1736303;82;21263;-77
2022/12/03 12:04:49;;;;;;;8.83;3.30;;;;;;;10.65;30.40;101804.87;1736955;82;21328;-77
2022/12/03 12:07:55;;;;;;;8.75;3.95;;;;;;;10.29;30.29;101805.83;1737059;82;21197;-76
2022/12/03 12:11:01;;;;;;;9.30;3.10;;;;;;;10.41;30.29;101806.60;1736737;82;21201;-76
2022/12/03 12:14:12;;;;;;;3.90;2.60;;;;;;;10.28;30.47;101825.12;1736433;82;21208;-77
2022/12/03 12:17:37;;;;;;;8.98;3.58;;;;;;;10.08;30.64;101822.27;1737405;80;21323;-77
2022/12/03 12:20:44;;;;;;;7.15;3.35;;;;;;;9.98;30.75;101830.42;1737364;82;21188;-77
2022/12/03 12:23:49;;;;;;;7.55;3.62;;;;;;;10.27;30.49;101818.78;1735485;82;21173;-77
2022/12/03 12:31:20;;;;;;;11.35;5.47;;;;;;;10.71;30.07;101828.42;1736868;82;21196;-77
2022/12/03 12:34:27;;;;;;;11.28;6.35;;;;;;;11.22;30.69;101830.08;1736930;82;21180;-76
2022/12/03 12:37:49;;;;;;;23.77;6.00;;;;;;;11.12;31.23;101836.56;1736902;82;21188;-76
2022/12/03 12:41:03;;;;;;;16.32;6.97;;;;;;;10.72;31.83;101849.30;1737215;82;21193;-76
2022/12/03 12:44:09;;;;;;;9.65;6.37;;;;;;;10.55;32.08;101845.88;1736542;82;21778;-77
2022/12/03 12:47:16;;;;;;;12.15;6.08;;;;;;;10.70;32.01;101836.78;1735581;82;21185;-76
2022/12/03 12:50:24;;;;;;;10.78;6.90;;;;;;;10.51;32.43;101860.84;1736897;82;21232;-76
2022/12/03 12:53:45;;;;;;;13.83;6.92;;;;;;;10.31;32.83;101855.80;1736909;82;21715;-76
2022/12/03 12:56:53;;;;;;;12.37;7.15;;;;;;;9.87;33.46;101851.48;1736975;82;21184;-76
2022/12/03 12:59:59;;;;;;;15.43;7.60;;;;;;;10.01;33.20;101862.06;1736276;82;21798;-78
2022/12/03 13:03:09;;;;;;;14.03;7.55;;;;;;;10.27;32.74;101863.91;1735335;82;21216;-77
2022/12/03 13:06:20;;;;;;;12.80;7.45;;;;;;;10.43;32.72;101856.05;1736970;82;21180;-77
2022/12/03 13:09:32;;;;;;;12.58;7.08;;;;;;;10.28;32.84;101875.20;1738157;82;21197;-76
2022/12/03 13:12:37;;;;;;;16.05;8.95;;;;;;;10.46;32.58;101851.69;1735710;82;21200;-77
2022/12/03 13:16:02;;;;;;;11.63;7.20;;;;;;;11.13;31.83;101863.80;1735990;82;22502;-76
2022/12/03 13:19:09;;;;;;;16.10;7.25;;;;;;;11.20;31.28;101864.98;1737154;80;21371;-76
2022/12/03 13:22:29;;;;;;;15.93;8.53;;;;;;;13.32;29.56;101858.97;1736597;82;21347;-76
2022/12/03 13:25:46;;;;;;;16.30;8.03;;;;;;;10.55;32.09;101873.75;1737923;82;21187;-76
2022/12/03 13:28:55;;;;;;;12.58;7.30;;;;;;;10.99;31.87;101876.02;1737498;82;21191;-76
2022/12/03 13:32:22;;;;;;;15.03;8.03;;;;;;;10.98;31.67;101853.77;1736839;82;21192;-77
2022/12/03 13:35:38;;;;;;;14.10;8.48;;;;;;;11.69;30.80;101856.74;1737386;82;21754;-76
2022/12/03 13:39:04;;;;;;;14.93;8.35;;;;;;;12.05;30.29;101867.98;1736933;82;21240;-76
2022/12/03 13:42:45;;;;;;;13.30;7.42;;;;;;;12.98;29.48;101865.59;1715417;82;21209;-76
2022/12/03 13:45:54;;;;;;;17.77;8.40;;;;;;;11.55;30.31;101876.38;1736235;82;21225;-77
2022/12/03 13:49:00;;;;;;;17.20;8.08;;;;;;;11.29;31.09;101884.28;1737107;82;21288;-76
2022/12/03 13:52:05;;;;;;;15.98;8.98;;;;;;;11.85;30.54;101887.69;1735486;82;21791;-76
2022/12/03 13:55:13;;;;;;;15.08;8.43;;;;;;;11.58;30.66;101907.61;1717366;82;21759;-76
2022/12/03 13:58:18;;;;;;;17.05;8.15;;;;;;;10.80;31.49;101894.28;1737012;82;21746;-77
2022/12/03 14:01:24;;;;;;;20.72;9.10;;;;;;;10.83;31.77;101885.30;1736104;82;21216;-79
2022/12/03 14:04:50;;;;;;;14.60;8.78;;;;;;;11.08;31.13;101902.20;1737201;82;21827;-78
2022/12/03 14:08:00;;;;;;;17.42;8.93;;;;;;;11.12;31.04;101921.46;1736925;82;21185;-76
2022/12/03 14:11:05;;;;;;;17.48;8.75;;;;;;;10.94;30.97;101913.91;1737084;82;22364;-76
2022/12/03 14:14:11;;;;;;;18.92;8.33;;;;;;;11.05;30.85;101929.86;1735854;82;21782;-76
2022/12/03 14:17:29;;;;;;;16.57;8.53;;;;;;;11.43;30.50;101920.37;1735799;82;21220;-77
2022/12/03 14:24:02;;;;;;;18.62;9.40;;;;;;;11.63;30.33;101909.41;1736175;82;21268;-77
2022/12/03 14:27:10;;;;;;;20.60;9.90;;;;;;;11.20;30.81;101923.00;1737018;82;21181;-77
2022/12/03 14:30:16;;;;;;;14.00;8.38;;;;;;;11.51;30.54;101935.56;1736798;82;21291;-76
2022/12/03 14:33:27;;;;;;;26.07;9.05;;;;;;;11.81;29.96;101929.60;1736794;82;21232;-76
2022/12/03 14:36:33;;;;;;;17.02;9.08;;;;;;;11.61;30.10;101930.09;1736978;82;21167;-76
2022/12/03 14:39:48;;;;;;;13.93;7.30;;;;;;;10.16;31.95;101951.45;1737171;82;21181;-77
2022/12/03 14:43:00;;;;;;;16.87;9.35;;;;;;;9.75;32.52;101945.48;1737810;82;21299;-76
2022/12/03 14:46:23;;;;;;;20.43;9.48;;;;;;;9.40;33.31;101941.98;1735893;82;21363;-76
2022/12/03 14:49:28;;;;;;;20.80;9.38;;;;;;;9.31;33.43;101941.39;1737194;82;21347;-77
2022/12/03 14:52:37;;;;;;;17.77;8.73;;;;;;;9.02;33.93;101933.41;1735676;82;21354;-76
2022/12/03 14:55:53;;;;;;;15.38;8.98;;;;;;;8.92;33.91;101945.08;1736786;82;21200;-76
2022/12/03 14:59:06;;;;;;;17.35;9.15;;;;;;;8.74;34.11;101954.77;1736499;82;21786;-76
2022/12/03 15:02:14;;;;;;;21.68;8.68;;;;;;;8.55;34.43;101964.92;1735979;82;21766;-76
2022/12/03 15:05:45;;;;;;;11.22;6.80;;;;;;;8.35;34.45;101973.31;1737175;82;21201;-76
2022/12/03 15:08:59;;;;;;;15.03;8.90;;;;;;;8.51;34.43;101959.84;1735359;82;21180;-77